• Join FlightAware (Why Join?)
  • Login
  • US Flag 
 
09:27PM EST


 

Airport Tracker/Info


-or-


 

Live Flight TrackerFlight Track Log ✈ SWA131 ✈ 21-Jun-2013 ✈ KSAN - KDEN

Flight Track Log - Related Links

Times and Time Zones

All times are in EDT time to prevent confusion due to time zone crossing. See the SWA131 flight status page for this flight to view local times or setup timezone preferences in your user account.

Time Position Orientation Groundspeed Altitude Reporting Facility
EDT Latitude Longitude Course Direction KTS MPH feet Rate Location/Type
02:24AM 32.7417 -117.2139 298° West 167 192 1,200  Level Los Angeles Center
02:25AM 32.7808 -117.3025 298° West 234 269 4,100 3,120 Climbing Los Angeles Center
02:26AM 32.7175 -117.3322 202° Southwest 250 288 7,600 2,940 Climbing Los Angeles Center
02:27AM 32.6558 -117.2908 151° Southeast 291 335 10,100 2,400 Climbing Los Angeles Center
02:28AM 32.6453 -117.1800 96° East 331 381 12,500 2,580 Climbing Los Angeles Center
02:29AM 32.6231 -117.0603 102° East 365 420 15,400 2,700 Climbing Los Angeles Center
02:30AM 32.6278 -116.9394 87° East 384 442 18,000 2,460 Climbing Los Angeles Center
02:31AM 32.7175 -116.8614 36° Northeast 403 464 20,500 2,340 Climbing Los Angeles Center
02:32AM 32.8136 -116.7878 33° Northeast 406 467 22,800 2,160 Climbing Los Angeles Center
02:33AM 32.9156 -116.7094 33° Northeast 423 487 24,900 1,980 Climbing Los Angeles Center
02:34AM 33.0242 -116.6269 32° Northeast 446 513 26,900 1,020 Climbing Los Angeles Center
02:35AM 33.1333 -116.5431 33° Northeast 458 527 27,000  Climbing Los Angeles Center
02:36AM 33.2408 -116.4606 33° Northeast 458 527 27,000 780 Level Los Angeles Center
02:37AM 33.3478 -116.3781 33° Northeast 455 524 28,700 1,440 Climbing Los Angeles Center
02:38AM 33.4361 -116.3089 33° Northeast 464 534 30,000 1,620 Climbing Los Angeles Center
02:39AM 33.5731 -116.2025 33° Northeast 483 556 32,000 1,980 Climbing Los Angeles Center
02:40AM 33.6744 -116.0914 42° Northeast 497 572 34,100 1,980 Climbing Los Angeles Center
02:41AM 33.7792 -115.9386 50° Northeast 494 568 36,100 1,440 Climbing Los Angeles Center
02:42AM 33.8667 -115.8119 50° Northeast 493 567 37,100 1,140 Climbing Los Angeles Center
02:43AM 33.9542 -115.6819 51° Northeast 497 572 38,400 900 Climbing Los Angeles Center
02:44AM 34.0408 -115.5556 50° Northeast 493 567 39,000 240 Climbing Los Angeles Center
02:45AM 34.1269 -115.4286 51° Northeast 490 564 39,000  Level Los Angeles Center
02:46AM 34.2131 -115.3019 51° Northeast 487 560 39,000  Level Los Angeles Center
02:48AM 34.2989 -115.1753 51° Northeast 487 560 39,000  Level Los Angeles Center
02:49AM 34.3842 -115.0478 51° Northeast 487 560 39,000  Level Los Angeles Center
02:50AM 34.4686 -114.9175 52° Northeast 492 566 39,000  Level Los Angeles Center
02:51AM 34.5553 -114.7928 50° Northeast 486 559 39,000  Level Los Angeles Center
02:52AM 34.6400 -114.6639 51° Northeast 487 560 39,000  Level Los Angeles Center
02:53AM 34.7272 -114.5306 51° Northeast 491 565 39,000  Level Los Angeles Center
02:54AM 34.8022 -114.3919 57° Northeast 490 564 39,000  Level Los Angeles Center
02:55AM 34.8669 -114.2433 62° Northeast 493 567 39,000  Level Los Angeles Center
02:56AM 34.9322 -114.0953 62° Northeast 495 570 39,000  Level Los Angeles Center
02:57AM 35.0092 -113.9175 62° Northeast 494 568 39,000  Level Los Angeles Center
02:58AM 35.0642 -113.7933 62° Northeast 496 571 39,000  Level Los Angeles Center
02:59AM 35.1283 -113.6453 62° Northeast 495 570 39,000  Level Los Angeles Center
03:00AM 35.1950 -113.4972 61° Northeast 499 574 39,000  Level Los Angeles Center
03:01AM 35.2664 -113.3544 58° Northeast 496 571 39,000  Level Los Angeles Center
03:02AM 35.3483 -113.1850 59° Northeast 493 567 39,000  Level Los Angeles Center
03:03AM 35.4197 -113.0397 59° Northeast 498 573 39,000  Level Los Angeles Center
03:04AM 35.4869 -112.8978 60° Northeast 500 575 39,000  Level Los Angeles Center
03:05AM 35.5561 -112.7517 60° Northeast 497 572 39,000  Level Los Angeles Center
03:06AM 35.6250 -112.6064 60° Northeast 494 568 39,000  Level Los Angeles Center
03:07AM 35.7178 -112.4111 60° Northeast 498 573 39,000  Level Los Angeles Center
03:08AM 35.7869 -112.2639 60° Northeast 500 575 39,000  Level Los Angeles Center
03:09AM 35.8561 -112.1167 60° Northeast 498 573 39,000  Level Los Angeles Center
03:10AM 35.9253 -111.9694 60° Northeast 499 574 39,000  Level Los Angeles Center
03:11AM 35.9989 -111.8089 60° Northeast 500 575 39,000  Level Los Angeles Center
03:12AM 36.0681 -111.6586 60° Northeast 503 579 39,000  Level Los Angeles Center
03:13AM 36.1244 -111.5425 59° Northeast 502 578 39,000  Level Denver Center
03:14AM 36.2022 -111.4025 55° Northeast 497 572 39,000  Level Denver Center
03:15AM 36.2792 -111.2617 56° Northeast 496 571 39,000  Level Denver Center
03:16AM 36.3561 -111.1194 56° Northeast 498 573 39,000  Level Denver Center
03:17AM 36.4353 -110.9761 56° Northeast 501 577 39,000  Level Denver Center
03:18AM 36.5128 -110.8333 56° Northeast 501 577 39,000  Level Denver Center
03:19AM 36.5886 -110.6906 56° Northeast 500 575 39,000  Level Denver Center
03:20AM 36.6653 -110.5472 56° Northeast 499 574 39,000  Level Denver Center
03:21AM 36.7417 -110.4031 56° Northeast 500 575 39,000  Level Denver Center
03:22AM 36.8183 -110.2589 56° Northeast 501 577 39,000  Level Denver Center
03:23AM 36.9194 -110.0667 57° Northeast 496 571 39,000  Level Denver Center
03:24AM 36.9933 -109.9281 56° Northeast 499 574 39,000  Level Denver Center
03:25AM 37.0658 -109.7894 57° Northeast 497 572 39,000  Level Denver Center
03:26AM 37.1511 -109.6247 57° Northeast 501 577 39,000  Level Denver Center
03:27AM 37.2244 -109.4850 57° Northeast 501 577 39,000  Level Denver Center
03:28AM 37.2975 -109.3436 57° Northeast 502 578 39,000  Level Denver Center
03:29AM 37.3825 -109.1792 57° Northeast 503 579 39,000 -540 Level Denver Center
03:30AM 37.4544 -109.0372 57° Northeast 502 578 38,000 -960 Descending Denver Center
03:31AM 37.5264 -108.8953 57° Northeast 502 578 37,100 -900 Descending Denver Center
03:32AM 37.5997 -108.7508 57° Northeast 507 583 36,200 -960 Descending Denver Center
03:33AM 37.6831 -108.5853 58° Northeast 503 579 35,200 -960 Descending Denver Center
03:34AM 37.7567 -108.4408 57° Northeast 507 583 34,300 -600 Descending Denver Center
03:35AM 37.8286 -108.2972 58° Northeast 504 580 34,000 -180 Descending Denver Center
03:36AM 37.9122 -108.1308 57° Northeast 503 579 34,000  Level Denver Center
03:37AM 37.9839 -107.9856 58° Northeast 504 580 34,000  Level Denver Center
03:38AM 38.0550 -107.8406 58° Northeast 506 582 34,000  Level Denver Center
03:39AM 38.1311 -107.6867 58° Northeast 505 581 34,000 -540 Level Denver Center
03:40AM 38.2125 -107.5194 58° Northeast 500 575 33,000 -540 Descending Denver Center
03:41AM 38.2822 -107.3778 58° Northeast 496 571 33,000  Level Denver Center
03:42AM 38.3514 -107.2333 59° Northeast 499 574 33,000  Level Denver Center
03:43AM 38.4272 -107.0786 58° Northeast 500 575 33,000  Level Denver Center
03:44AM 38.5003 -106.9258 59° Northeast 505 581 33,000  Level Denver Center
03:45AM 38.5725 -106.7742 59° Northeast 502 578 33,000  Level Denver Center
03:46AM 38.6450 -106.6214 59° Northeast 505 581 33,000  Level Denver Center
03:47AM 38.7172 -106.4694 59° Northeast 502 578 33,000  Level Denver Center
03:48AM 38.7881 -106.3175 59° Northeast 500 575 33,000  Level Denver Center
03:49AM 38.8642 -106.1572 59° Northeast 493 567 33,000 -720 Level Denver Center
03:50AM 38.9289 -106.0164 59° Northeast 490 564 31,600 -1,980 Descending Denver Center
03:51AM 38.9972 -105.8700 59° Northeast 481 554 29,100 -2,340 Descending Denver Center
03:52AM 39.0631 -105.7278 59° Northeast 469 540 26,900 -2,280 Descending Denver Center
03:53AM 39.1303 -105.5797 60° Northeast 455 524 24,600 -2,280 Descending Denver Center
03:54AM 39.1958 -105.4433 58° Northeast 439 505 22,400 -1,620 Descending Denver Center
03:56AM 39.2675 -105.2939 58° Northeast 386 444 21,100 -1,380 Descending Denver Center
03:57AM 39.3469 -105.2133 38° Northeast 362 417 19,400 -1,680 Descending Denver Center
03:58AM 39.4108 -105.1175 49° Northeast 350 403 17,800 -2,340 Descending Denver Center
03:59AM 39.4786 -105.0256 46° Northeast 355 409 14,800 -2,520 Descending Denver Center
04:00AM 39.5503 -104.9228 48° Northeast 357 411 12,800 -2,220 Descending Denver Center
04:01AM 39.6161 -104.8319 47° Northeast 350 403 10,400 -1,560 Descending Denver Center
04:02AM 39.6725 -104.7511 48° Northeast 296 341 9,700 -1,140 Descending Denver Center
04:03AM 39.7167 -104.6889 47° Northeast 243 280 8,200 -1,380 Descending Denver Center
04:04AM 39.7544 -104.6428 43° Northeast 191 220 7,000 -1,080 Descending Denver Center
04:05AM 39.7989 -104.6425 360° North 158 182 6,100 -840 Descending Denver Center
04:06AM 39.8386 -104.6417 North 144 166 5,400 -720 Descending Denver Center
04:08AM 39.8617 -104.6732 340° North  Level Estimated
04:15AM 39.8617 -104.6732 North  Level Estimated
04:16AM 39.8617 -104.6732 North  Level Estimated